sensor_id;sensor_type;location;lat;lon;timestamp;P1;durP1;ratioP1;P2;durP2;ratioP2
23346;SDS011;36852;45.466;11.066;2024-02-26T00:02:02;10.88;;;6.75;;
23346;SDS011;36852;45.466;11.066;2024-02-26T00:04:55;9.18;;;6.03;;
23346;SDS011;36852;45.466;11.066;2024-02-26T00:07:46;10.78;;;6.35;;
23346;SDS011;36852;45.466;11.066;2024-02-26T00:10:35;15.32;;;6.75;;
23346;SDS011;36852;45.466;11.066;2024-02-26T00:16:19;9.13;;;5.87;;
23346;SDS011;36852;45.466;11.066;2024-02-26T00:19:11;10.18;;;6.45;;
23346;SDS011;36852;45.466;11.066;2024-02-26T00:22:05;12.78;;;6.22;;
23346;SDS011;36852;45.466;11.066;2024-02-26T00:24:58;11.30;;;6.42;;
23346;SDS011;36852;45.466;11.066;2024-02-26T00:27:48;8.15;;;5.42;;
23346;SDS011;36852;45.466;11.066;2024-02-26T00:30:46;7.62;;;5.55;;
23346;SDS011;36852;45.466;11.066;2024-02-26T00:33:44;8.68;;;4.78;;
23346;SDS011;36852;45.466;11.066;2024-02-26T00:36:40;8.13;;;5.08;;
23346;SDS011;36852;45.466;11.066;2024-02-26T00:39:39;13.50;;;5.47;;
23346;SDS011;36852;45.466;11.066;2024-02-26T00:42:43;7.67;;;4.70;;
23346;SDS011;36852;45.466;11.066;2024-02-26T00:45:42;9.43;;;4.10;;
23346;SDS011;36852;45.466;11.066;2024-02-26T00:48:40;6.85;;;3.50;;
23346;SDS011;36852;45.466;11.066;2024-02-26T00:51:09;4.58;;;3.37;;
23346;SDS011;36852;45.466;11.066;2024-02-26T00:53:45;6.08;;;3.47;;
23346;SDS011;36852;45.466;11.066;2024-02-26T00:56:35;8.20;;;3.83;;
23346;SDS011;36852;45.466;11.066;2024-02-26T00:59:11;6.05;;;3.35;;
23346;SDS011;36852;45.466;11.066;2024-02-26T01:01:48;9.60;;;3.80;;
23346;SDS011;36852;45.466;11.066;2024-02-26T01:04:29;8.18;;;3.95;;
23346;SDS011;36852;45.466;11.066;2024-02-26T01:07:00;5.55;;;3.12;;
23346;SDS011;36852;45.466;11.066;2024-02-26T01:09:35;6.92;;;3.33;;
23346;SDS011;36852;45.466;11.066;2024-02-26T01:12:09;5.97;;;3.33;;
23346;SDS011;36852;45.466;11.066;2024-02-26T01:15:11;5.67;;;3.27;;
23346;SDS011;36852;45.466;11.066;2024-02-26T01:18:01;6.60;;;3.17;;
23346;SDS011;36852;45.466;11.066;2024-02-26T01:20:58;4.62;;;3.30;;
23346;SDS011;36852;45.466;11.066;2024-02-26T01:24:10;4.65;;;3.12;;
23346;SDS011;36852;45.466;11.066;2024-02-26T01:27:04;7.70;;;3.72;;
23346;SDS011;36852;45.466;11.066;2024-02-26T01:29:55;9.15;;;3.60;;
23346;SDS011;36852;45.466;11.066;2024-02-26T01:32:54;4.62;;;3.52;;
23346;SDS011;36852;45.466;11.066;2024-02-26T01:35:43;9.30;;;3.20;;
23346;SDS011;36852;45.466;11.066;2024-02-26T01:38:28;4.67;;;3.55;;
23346;SDS011;36852;45.466;11.066;2024-02-26T01:41:06;7.60;;;3.60;;
23346;SDS011;36852;45.466;11.066;2024-02-26T01:44:00;5.03;;;3.60;;
23346;SDS011;36852;45.466;11.066;2024-02-26T01:46:50;6.72;;;3.87;;
23346;SDS011;36852;45.466;11.066;2024-02-26T01:49:38;6.42;;;3.90;;
23346;SDS011;36852;45.466;11.066;2024-02-26T01:52:29;4.42;;;3.40;;
23346;SDS011;36852;45.466;11.066;2024-02-26T01:55:24;7.53;;;4.03;;
23346;SDS011;36852;45.466;11.066;2024-02-26T01:58:18;7.35;;;3.83;;
23346;SDS011;36852;45.466;11.066;2024-02-26T02:01:08;8.08;;;4.17;;
23346;SDS011;36852;45.466;11.066;2024-02-26T02:04:01;5.33;;;3.87;;
23346;SDS011;36852;45.466;11.066;2024-02-26T02:06:50;6.85;;;4.10;;
23346;SDS011;36852;45.466;11.066;2024-02-26T02:09:46;8.38;;;4.25;;
23346;SDS011;36852;45.466;11.066;2024-02-26T02:12:35;6.42;;;3.87;;
23346;SDS011;36852;45.466;11.066;2024-02-26T02:15:31;7.60;;;4.17;;
23346;SDS011;36852;45.466;11.066;2024-02-26T02:18:29;7.28;;;4.47;;
23346;SDS011;36852;45.466;11.066;2024-02-26T02:20:57;6.08;;;4.60;;
23346;SDS011;36852;45.466;11.066;2024-02-26T02:23:38;6.42;;;4.20;;
23346;SDS011;36852;45.466;11.066;2024-02-26T02:26:22;7.00;;;4.90;;
23346;SDS011;36852;45.466;11.066;2024-02-26T02:29:19;8.00;;;4.75;;
23346;SDS011;36852;45.466;11.066;2024-02-26T02:31:48;9.48;;;4.50;;
23346;SDS011;36852;45.466;11.066;2024-02-26T02:34:21;9.78;;;4.87;;
23346;SDS011;36852;45.466;11.066;2024-02-26T02:36:54;9.73;;;5.37;;
23346;SDS011;36852;45.466;11.066;2024-02-26T02:39:22;6.62;;;5.00;;
23346;SDS011;36852;45.466;11.066;2024-02-26T02:41:51;11.40;;;5.33;;
23346;SDS011;36852;45.466;11.066;2024-02-26T02:44:29;7.25;;;5.53;;
23346;SDS011;36852;45.466;11.066;2024-02-26T02:46:59;9.33;;;4.70;;
23346;SDS011;36852;45.466;11.066;2024-02-26T02:49:31;6.92;;;5.20;;
23346;SDS011;36852;45.466;11.066;2024-02-26T02:52:25;7.67;;;5.42;;
23346;SDS011;36852;45.466;11.066;2024-02-26T02:55:16;8.33;;;5.05;;
23346;SDS011;36852;45.466;11.066;2024-02-26T02:58:13;7.72;;;5.65;;
23346;SDS011;36852;45.466;11.066;2024-02-26T03:01:13;7.05;;;5.85;;
23346;SDS011;36852;45.466;11.066;2024-02-26T03:04:05;10.75;;;6.12;;
23346;SDS011;36852;45.466;11.066;2024-02-26T03:06:58;6.95;;;5.33;;
23346;SDS011;36852;45.466;11.066;2024-02-26T03:09:58;10.08;;;5.67;;
23346;SDS011;36852;45.466;11.066;2024-02-26T03:12:51;8.88;;;5.90;;
23346;SDS011;36852;45.466;11.066;2024-02-26T03:18:46;9.33;;;6.15;;
23346;SDS011;36852;45.466;11.066;2024-02-26T03:21:44;12.25;;;6.03;;
23346;SDS011;36852;45.466;11.066;2024-02-26T03:24:40;13.35;;;5.30;;
23346;SDS011;36852;45.466;11.066;2024-02-26T03:27:28;11.18;;;5.55;;
23346;SDS011;36852;45.466;11.066;2024-02-26T03:30:22;12.93;;;5.87;;
23346;SDS011;36852;45.466;11.066;2024-02-26T03:32:58;10.08;;;4.92;;
23346;SDS011;36852;45.466;11.066;2024-02-26T03:35:54;10.32;;;5.92;;
23346;SDS011;36852;45.466;11.066;2024-02-26T03:38:43;9.33;;;5.80;;
23346;SDS011;36852;45.466;11.066;2024-02-26T03:41:39;12.35;;;5.25;;
23346;SDS011;36852;45.466;11.066;2024-02-26T03:44:32;7.37;;;5.22;;
23346;SDS011;36852;45.466;11.066;2024-02-26T03:47:31;8.85;;;5.10;;
23346;SDS011;36852;45.466;11.066;2024-02-26T03:50:25;8.65;;;5.37;;
23346;SDS011;36852;45.466;11.066;2024-02-26T03:53:29;8.35;;;4.87;;
23346;SDS011;36852;45.466;11.066;2024-02-26T03:56:21;9.65;;;5.37;;
23346;SDS011;36852;45.466;11.066;2024-02-26T03:59:18;7.10;;;4.62;;
23346;SDS011;36852;45.466;11.066;2024-02-26T04:02:17;13.05;;;5.37;;
23346;SDS011;36852;45.466;11.066;2024-02-26T04:05:11;10.15;;;4.50;;
23346;SDS011;36852;45.466;11.066;2024-02-26T04:07:40;6.08;;;4.78;;
23346;SDS011;36852;45.466;11.066;2024-02-26T04:10:09;6.50;;;4.53;;
23346;SDS011;36852;45.466;11.066;2024-02-26T04:12:40;10.90;;;4.53;;
23346;SDS011;36852;45.466;11.066;2024-02-26T04:15:12;7.45;;;5.05;;
23346;SDS011;36852;45.466;11.066;2024-02-26T04:17:41;6.78;;;4.58;;
23346;SDS011;36852;45.466;11.066;2024-02-26T04:20:14;7.37;;;4.90;;
23346;SDS011;36852;45.466;11.066;2024-02-26T04:22:46;6.70;;;4.42;;
23346;SDS011;36852;45.466;11.066;2024-02-26T04:25:15;7.37;;;4.08;;
23346;SDS011;36852;45.466;11.066;2024-02-26T04:27:44;6.62;;;4.10;;
23346;SDS011;36852;45.466;11.066;2024-02-26T04:30:14;9.35;;;4.58;;
23346;SDS011;36852;45.466;11.066;2024-02-26T04:32:45;8.73;;;4.17;;
23346;SDS011;36852;45.466;11.066;2024-02-26T04:35:14;9.73;;;4.80;;
23346;SDS011;36852;45.466;11.066;2024-02-26T04:37:44;10.72;;;4.90;;
23346;SDS011;36852;45.466;11.066;2024-02-26T04:40:14;9.58;;;4.55;;
23346;SDS011;36852;45.466;11.066;2024-02-26T04:42:50;6.87;;;3.52;;
23346;SDS011;36852;45.466;11.066;2024-02-26T04:45:20;7.55;;;4.33;;
23346;SDS011;36852;45.466;11.066;2024-02-26T04:47:50;5.42;;;4.00;;
23346;SDS011;36852;45.466;11.066;2024-02-26T04:50:21;5.00;;;3.77;;
23346;SDS011;36852;45.466;11.066;2024-02-26T04:53:09;7.03;;;4.53;;
23346;SDS011;36852;45.466;11.066;2024-02-26T05:28:09;6.00;;;3.83;;
23346;SDS011;36852;45.466;11.066;2024-02-26T05:31:15;8.05;;;3.98;;
23346;SDS011;36852;45.466;11.066;2024-02-26T05:44:54;6.28;;;3.95;;
23346;SDS011;36852;45.466;11.066;2024-02-26T06:09:11;6.15;;;4.12;;
23346;SDS011;36852;45.466;11.066;2024-02-26T06:11:50;6.10;;;4.30;;
23346;SDS011;36852;45.466;11.066;2024-02-26T06:45:18;13.05;;;7.05;;
23346;SDS011;36852;45.466;11.066;2024-02-26T06:48:07;13.18;;;7.42;;
23346;SDS011;36852;45.466;11.066;2024-02-26T06:50:46;12.80;;;7.12;;
23346;SDS011;36852;45.466;11.066;2024-02-26T07:00:04;13.18;;;6.95;;
23346;SDS011;36852;45.466;11.066;2024-02-26T07:03:11;12.35;;;7.22;;
23346;SDS011;36852;45.466;11.066;2024-02-26T07:06:06;10.85;;;7.42;;
23346;SDS011;36852;45.466;11.066;2024-02-26T07:09:05;14.58;;;7.83;;
23346;SDS011;36852;45.466;11.066;2024-02-26T07:11:40;13.68;;;7.20;;
23346;SDS011;36852;45.466;11.066;2024-02-26T07:14:13;10.95;;;7.95;;
23346;SDS011;36852;45.466;11.066;2024-02-26T07:16:42;13.45;;;7.30;;
23346;SDS011;36852;45.466;11.066;2024-02-26T07:19:13;13.43;;;7.55;;
23346;SDS011;36852;45.466;11.066;2024-02-26T07:21:47;13.75;;;7.90;;
23346;SDS011;36852;45.466;11.066;2024-02-26T07:39:22;15.35;;;8.03;;
23346;SDS011;36852;45.466;11.066;2024-02-26T07:51:15;22.73;;;8.35;;
23346;SDS011;36852;45.466;11.066;2024-02-26T07:56:53;15.72;;;7.97;;
23346;SDS011;36852;45.466;11.066;2024-02-26T07:59:48;22.02;;;9.75;;
23346;SDS011;36852;45.466;11.066;2024-02-26T08:08:35;23.18;;;13.00;;
23346;SDS011;36852;45.466;11.066;2024-02-26T08:11:06;18.35;;;11.25;;
23346;SDS011;36852;45.466;11.066;2024-02-26T08:13:55;18.65;;;9.78;;
23346;SDS011;36852;45.466;11.066;2024-02-26T09:21:12;8.50;;;6.00;;
23346;SDS011;36852;45.466;11.066;2024-02-26T09:26:42;10.65;;;6.15;;
23346;SDS011;36852;45.466;11.066;2024-02-26T09:35:29;9.45;;;6.70;;
23346;SDS011;36852;45.466;11.066;2024-02-26T09:41:23;6.45;;;5.70;;
23346;SDS011;36852;45.466;11.066;2024-02-26T09:43:51;12.80;;;5.83;;
23346;SDS011;36852;45.466;11.066;2024-02-26T09:49:23;14.00;;;5.80;;
23346;SDS011;36852;45.466;11.066;2024-02-26T09:51:55;12.80;;;6.97;;
23346;SDS011;36852;45.466;11.066;2024-02-26T09:54:25;12.18;;;7.05;;
23346;SDS011;36852;45.466;11.066;2024-02-26T09:56:55;8.83;;;6.08;;
23346;SDS011;36852;45.466;11.066;2024-02-26T09:59:29;6.90;;;5.90;;
23346;SDS011;36852;45.466;11.066;2024-02-26T10:02:04;11.70;;;6.78;;
23346;SDS011;36852;45.466;11.066;2024-02-26T10:04:36;14.47;;;7.28;;
23346;SDS011;36852;45.466;11.066;2024-02-26T10:07:07;12.33;;;7.28;;
23346;SDS011;36852;45.466;11.066;2024-02-26T10:09:40;13.58;;;7.33;;
23346;SDS011;36852;45.466;11.066;2024-02-26T10:12:14;12.37;;;6.83;;
23346;SDS011;36852;45.466;11.066;2024-02-26T10:14:47;10.98;;;6.37;;
23346;SDS011;36852;45.466;11.066;2024-02-26T10:17:17;11.90;;;7.62;;
23346;SDS011;36852;45.466;11.066;2024-02-26T10:22:44;13.80;;;8.48;;
23346;SDS011;36852;45.466;11.066;2024-02-26T10:25:12;9.88;;;7.08;;
23346;SDS011;36852;45.466;11.066;2024-02-26T10:27:41;13.80;;;6.95;;
23346;SDS011;36852;45.466;11.066;2024-02-26T10:36:33;20.27;;;11.22;;
23346;SDS011;36852;45.466;11.066;2024-02-26T11:40:09;5.90;;;4.72;;
23346;SDS011;36852;45.466;11.066;2024-02-26T11:42:53;6.35;;;4.05;;
23346;SDS011;36852;45.466;11.066;2024-02-26T11:51:38;6.50;;;3.77;;
23346;SDS011;36852;45.466;11.066;2024-02-26T11:54:10;7.10;;;3.85;;
23346;SDS011;36852;45.466;11.066;2024-02-26T11:56:40;9.45;;;4.25;;
23346;SDS011;36852;45.466;11.066;2024-02-26T12:05:30;6.42;;;3.12;;
23346;SDS011;36852;45.466;11.066;2024-02-26T12:08:03;6.40;;;2.98;;
23346;SDS011;36852;45.466;11.066;2024-02-26T12:13:08;6.53;;;3.52;;
23346;SDS011;36852;45.466;11.066;2024-02-26T12:18:16;7.47;;;3.33;;
23346;SDS011;36852;45.466;11.066;2024-02-26T12:20:46;4.95;;;3.80;;
23346;SDS011;36852;45.466;11.066;2024-02-26T12:23:15;5.70;;;3.98;;
23346;SDS011;36852;45.466;11.066;2024-02-26T12:25:45;6.25;;;3.40;;
23346;SDS011;36852;45.466;11.066;2024-02-26T12:28:15;5.17;;;3.30;;
23346;SDS011;36852;45.466;11.066;2024-02-26T12:30:45;9.75;;;3.62;;
23346;SDS011;36852;45.466;11.066;2024-02-26T12:33:13;8.70;;;3.45;;
23346;SDS011;36852;45.466;11.066;2024-02-26T12:35:43;6.40;;;4.22;;
23346;SDS011;36852;45.466;11.066;2024-02-26T12:38:16;6.22;;;3.33;;
23346;SDS011;36852;45.466;11.066;2024-02-26T12:40:45;5.35;;;2.75;;
23346;SDS011;36852;45.466;11.066;2024-02-26T12:43:14;6.97;;;3.60;;
23346;SDS011;36852;45.466;11.066;2024-02-26T12:45:44;7.05;;;4.15;;
23346;SDS011;36852;45.466;11.066;2024-02-26T12:48:14;8.13;;;3.58;;
23346;SDS011;36852;45.466;11.066;2024-02-26T12:50:46;7.03;;;3.42;;
23346;SDS011;36852;45.466;11.066;2024-02-26T12:53:19;5.37;;;3.77;;
23346;SDS011;36852;45.466;11.066;2024-02-26T12:55:48;6.85;;;2.87;;
23346;SDS011;36852;45.466;11.066;2024-02-26T12:58:17;11.55;;;3.35;;
23346;SDS011;36852;45.466;11.066;2024-02-26T13:00:47;12.80;;;5.08;;
23346;SDS011;36852;45.466;11.066;2024-02-26T13:03:17;5.55;;;3.25;;
23346;SDS011;36852;45.466;11.066;2024-02-26T13:05:47;6.67;;;3.00;;
23346;SDS011;36852;45.466;11.066;2024-02-26T13:08:20;4.75;;;2.52;;
23346;SDS011;36852;45.466;11.066;2024-02-26T13:10:49;4.47;;;2.77;;
23346;SDS011;36852;45.466;11.066;2024-02-26T13:13:19;3.70;;;1.85;;
23346;SDS011;36852;45.466;11.066;2024-02-26T13:15:48;10.68;;;3.10;;
23346;SDS011;36852;45.466;11.066;2024-02-26T13:18:16;6.03;;;2.60;;
23346;SDS011;36852;45.466;11.066;2024-02-26T13:20:45;11.12;;;2.60;;
23346;SDS011;36852;45.466;11.066;2024-02-26T13:23:13;5.47;;;2.10;;
23346;SDS011;36852;45.466;11.066;2024-02-26T13:25:42;4.60;;;3.12;;
23346;SDS011;36852;45.466;11.066;2024-02-26T13:28:13;5.08;;;2.47;;
23346;SDS011;36852;45.466;11.066;2024-02-26T13:30:52;5.37;;;2.67;;
23346;SDS011;36852;45.466;11.066;2024-02-26T13:33:25;5.97;;;3.22;;
23346;SDS011;36852;45.466;11.066;2024-02-26T13:35:54;10.00;;;2.60;;
23346;SDS011;36852;45.466;11.066;2024-02-26T13:38:25;6.50;;;3.50;;
23346;SDS011;36852;45.466;11.066;2024-02-26T13:40:55;12.07;;;4.78;;
23346;SDS011;36852;45.466;11.066;2024-02-26T13:43:23;6.20;;;4.12;;
23346;SDS011;36852;45.466;11.066;2024-02-26T13:46:02;5.72;;;3.27;;
23346;SDS011;36852;45.466;11.066;2024-02-26T13:55:41;3.35;;;2.58;;
23346;SDS011;36852;45.466;11.066;2024-02-26T13:58:12;5.25;;;2.67;;
23346;SDS011;36852;45.466;11.066;2024-02-26T14:00:44;6.03;;;3.00;;
23346;SDS011;36852;45.466;11.066;2024-02-26T14:03:13;5.17;;;3.52;;
23346;SDS011;36852;45.466;11.066;2024-02-26T14:05:43;6.33;;;3.45;;
23346;SDS011;36852;45.466;11.066;2024-02-26T14:08:20;5.58;;;2.98;;
23346;SDS011;36852;45.466;11.066;2024-02-26T14:10:49;3.80;;;2.70;;
23346;SDS011;36852;45.466;11.066;2024-02-26T14:13:21;6.33;;;3.37;;
23346;SDS011;36852;45.466;11.066;2024-02-26T14:15:55;6.87;;;3.47;;
23346;SDS011;36852;45.466;11.066;2024-02-26T14:18:29;8.90;;;6.05;;
23346;SDS011;36852;45.466;11.066;2024-02-26T14:58:06;8.65;;;4.45;;
23346;SDS011;36852;45.466;11.066;2024-02-26T15:03:43;5.72;;;3.75;;
23346;SDS011;36852;45.466;11.066;2024-02-26T15:06:31;6.05;;;3.87;;
23346;SDS011;36852;45.466;11.066;2024-02-26T15:28:56;5.20;;;2.77;;
23346;SDS011;36852;45.466;11.066;2024-02-26T15:31:57;6.00;;;2.55;;
23346;SDS011;36852;45.466;11.066;2024-02-26T15:35:05;4.12;;;2.42;;
23346;SDS011;36852;45.466;11.066;2024-02-26T15:38:02;4.17;;;2.27;;
23346;SDS011;36852;45.466;11.066;2024-02-26T15:40:54;3.72;;;2.20;;
23346;SDS011;36852;45.466;11.066;2024-02-26T15:44:03;5.85;;;1.87;;
23346;SDS011;36852;45.466;11.066;2024-02-26T15:47:00;3.40;;;1.85;;
23346;SDS011;36852;45.466;11.066;2024-02-26T15:49:49;4.92;;;1.95;;
23346;SDS011;36852;45.466;11.066;2024-02-26T15:52:29;2.67;;;2.08;;
23346;SDS011;36852;45.466;11.066;2024-02-26T16:01:27;4.62;;;2.00;;
23346;SDS011;36852;45.466;11.066;2024-02-26T16:03:59;3.15;;;2.70;;
23346;SDS011;36852;45.466;11.066;2024-02-26T16:06:53;3.35;;;2.12;;
23346;SDS011;36852;45.466;11.066;2024-02-26T16:09:50;2.70;;;1.70;;
23346;SDS011;36852;45.466;11.066;2024-02-26T16:12:44;4.10;;;1.42;;
23346;SDS011;36852;45.466;11.066;2024-02-26T16:15:50;1.47;;;1.10;;
23346;SDS011;36852;45.466;11.066;2024-02-26T16:18:37;5.20;;;1.60;;
23346;SDS011;36852;45.466;11.066;2024-02-26T16:21:27;1.45;;;1.22;;
23346;SDS011;36852;45.466;11.066;2024-02-26T16:24:39;4.95;;;3.22;;
23346;SDS011;36852;45.466;11.066;2024-02-26T16:27:44;2.60;;;1.60;;
23346;SDS011;36852;45.466;11.066;2024-02-26T16:30:26;1.80;;;1.27;;
23346;SDS011;36852;45.466;11.066;2024-02-26T16:33:00;2.12;;;1.57;;
23346;SDS011;36852;45.466;11.066;2024-02-26T16:35:57;1.87;;;1.45;;
23346;SDS011;36852;45.466;11.066;2024-02-26T16:38:54;2.95;;;1.80;;
23346;SDS011;36852;45.466;11.066;2024-02-26T16:41:49;2.40;;;1.60;;
23346;SDS011;36852;45.466;11.066;2024-02-26T16:47:21;2.67;;;1.20;;
23346;SDS011;36852;45.466;11.066;2024-02-26T16:50:28;2.15;;;1.37;;
23346;SDS011;36852;45.466;11.066;2024-02-26T16:53:20;1.87;;;0.85;;
23346;SDS011;36852;45.466;11.066;2024-02-26T16:56:11;2.30;;;1.17;;
23346;SDS011;36852;45.466;11.066;2024-02-26T16:58:43;1.75;;;1.00;;
23346;SDS011;36852;45.466;11.066;2024-02-26T17:01:20;6.17;;;2.67;;
23346;SDS011;36852;45.466;11.066;2024-02-26T17:04:10;5.22;;;2.83;;
23346;SDS011;36852;45.466;11.066;2024-02-26T17:07:00;1.37;;;1.05;;
23346;SDS011;36852;45.466;11.066;2024-02-26T17:09:59;1.57;;;0.80;;
23346;SDS011;36852;45.466;11.066;2024-02-26T17:12:51;1.77;;;1.00;;
23346;SDS011;36852;45.466;11.066;2024-02-26T17:15:28;1.35;;;0.82;;
23346;SDS011;36852;45.466;11.066;2024-02-26T17:18:19;0.85;;;0.80;;
23346;SDS011;36852;45.466;11.066;2024-02-26T17:20:56;0.80;;;0.80;;
23346;SDS011;36852;45.466;11.066;2024-02-26T17:23:40;1.15;;;0.78;;
23346;SDS011;36852;45.466;11.066;2024-02-26T17:26:21;0.90;;;0.82;;
23346;SDS011;36852;45.466;11.066;2024-02-26T17:29:07;0.95;;;0.80;;
23346;SDS011;36852;45.466;11.066;2024-02-26T17:31:46;2.33;;;0.95;;
23346;SDS011;36852;45.466;11.066;2024-02-26T17:34:32;1.22;;;0.60;;
23346;SDS011;36852;45.466;11.066;2024-02-26T17:37:37;3.98;;;2.85;;
23346;SDS011;36852;45.466;11.066;2024-02-26T17:40:27;1.45;;;1.30;;
23346;SDS011;36852;45.466;11.066;2024-02-26T17:43:26;1.62;;;1.32;;
23346;SDS011;36852;45.466;11.066;2024-02-26T17:46:25;4.33;;;1.00;;
23346;SDS011;36852;45.466;11.066;2024-02-26T17:49:06;2.40;;;1.12;;
23346;SDS011;36852;45.466;11.066;2024-02-26T17:52:08;1.65;;;1.20;;
23346;SDS011;36852;45.466;11.066;2024-02-26T17:54:52;2.35;;;0.70;;
23346;SDS011;36852;45.466;11.066;2024-02-26T17:57:59;0.70;;;0.62;;
23346;SDS011;36852;45.466;11.066;2024-02-26T18:00:44;3.08;;;1.22;;
23346;SDS011;36852;45.466;11.066;2024-02-26T18:03:52;1.82;;;1.10;;
23346;SDS011;36852;45.466;11.066;2024-02-26T18:06:33;1.55;;;1.20;;
23346;SDS011;36852;45.466;11.066;2024-02-26T18:09:28;1.05;;;0.88;;
23346;SDS011;36852;45.466;11.066;2024-02-26T18:12:19;2.00;;;0.98;;
23346;SDS011;36852;45.466;11.066;2024-02-26T18:15:14;2.33;;;1.15;;
23346;SDS011;36852;45.466;11.066;2024-02-26T18:18:07;2.80;;;0.90;;
23346;SDS011;36852;45.466;11.066;2024-02-26T18:21:12;2.15;;;1.27;;
23346;SDS011;36852;45.466;11.066;2024-02-26T18:23:58;5.20;;;2.00;;
23346;SDS011;36852;45.466;11.066;2024-02-26T18:27:02;1.85;;;1.22;;
23346;SDS011;36852;45.466;11.066;2024-02-26T18:30:02;1.60;;;0.78;;
23346;SDS011;36852;45.466;11.066;2024-02-26T18:36:15;1.22;;;0.80;;
23346;SDS011;36852;45.466;11.066;2024-02-26T19:08:20;0.20;;;0.20;;
23346;SDS011;36852;45.466;11.066;2024-02-26T19:14:33;0.10;;;0.10;;
23346;SDS011;36852;45.466;11.066;2024-02-26T19:17:21;0.30;;;0.20;;
23346;SDS011;36852;45.466;11.066;2024-02-26T19:25:35;0.40;;;0.30;;
23346;SDS011;36852;45.466;11.066;2024-02-26T19:34:28;0.30;;;0.30;;
23346;SDS011;36852;45.466;11.066;2024-02-26T19:37:42;1.72;;;0.30;;
23346;SDS011;36852;45.466;11.066;2024-02-26T19:43:41;2.25;;;0.20;;
23346;SDS011;36852;45.466;11.066;2024-02-26T19:49:18;0.42;;;0.17;;
23346;SDS011;36852;45.466;11.066;2024-02-26T19:52:11;0.20;;;0.10;;
23346;SDS011;36852;45.466;11.066;2024-02-26T19:55:08;0.80;;;0.40;;
23346;SDS011;36852;45.466;11.066;2024-02-26T20:21:01;0.72;;;0.55;;
23346;SDS011;36852;45.466;11.066;2024-02-26T20:23:39;1.82;;;0.60;;
23346;SDS011;36852;45.466;11.066;2024-02-26T20:26:14;0.50;;;0.33;;
23346;SDS011;36852;45.466;11.066;2024-02-26T20:39:13;1.17;;;0.40;;
23346;SDS011;36852;45.466;11.066;2024-02-26T20:41:47;2.98;;;0.80;;
23346;SDS011;36852;45.466;11.066;2024-02-26T20:44:30;1.82;;;0.50;;
23346;SDS011;36852;45.466;11.066;2024-02-26T20:47:01;1.90;;;0.30;;
23346;SDS011;36852;45.466;11.066;2024-02-26T20:49:33;1.07;;;0.30;;
23346;SDS011;36852;45.466;11.066;2024-02-26T20:52:04;1.02;;;0.30;;
23346;SDS011;36852;45.466;11.066;2024-02-26T20:54:34;0.93;;;0.30;;
23346;SDS011;36852;45.466;11.066;2024-02-26T20:57:05;0.82;;;0.40;;
23346;SDS011;36852;45.466;11.066;2024-02-26T21:02:42;0.88;;;0.40;;
23346;SDS011;36852;45.466;11.066;2024-02-26T21:05:19;0.42;;;0.30;;
23346;SDS011;36852;45.466;11.066;2024-02-26T21:08:14;1.17;;;0.65;;
23346;SDS011;36852;45.466;11.066;2024-02-26T21:10:51;1.20;;;0.40;;
23346;SDS011;36852;45.466;11.066;2024-02-26T21:13:39;1.10;;;0.50;;
23346;SDS011;36852;45.466;11.066;2024-02-26T21:16:16;1.07;;;0.30;;
23346;SDS011;36852;45.466;11.066;2024-02-26T21:19:08;0.80;;;0.30;;
23346;SDS011;36852;45.466;11.066;2024-02-26T21:21:59;1.02;;;0.53;;
23346;SDS011;36852;45.466;11.066;2024-02-26T21:24:52;0.37;;;0.35;;
23346;SDS011;36852;45.466;11.066;2024-02-26T21:27:30;0.40;;;0.20;;
23346;SDS011;36852;45.466;11.066;2024-02-26T21:30:21;0.20;;;0.20;;
23346;SDS011;36852;45.466;11.066;2024-02-26T21:33:18;0.33;;;0.20;;
23346;SDS011;36852;45.466;11.066;2024-02-26T21:36:24;0.20;;;0.20;;
23346;SDS011;36852;45.466;11.066;2024-02-26T21:42:10;0.30;;;0.20;;
23346;SDS011;36852;45.466;11.066;2024-02-26T21:45:04;0.57;;;0.33;;
23346;SDS011;36852;45.466;11.066;2024-02-26T21:47:44;0.25;;;0.23;;
23346;SDS011;36852;45.466;11.066;2024-02-26T21:50:15;0.37;;;0.30;;
23346;SDS011;36852;45.466;11.066;2024-02-26T21:53:07;0.55;;;0.50;;
23346;SDS011;36852;45.466;11.066;2024-02-26T21:56:05;0.13;;;0.10;;
23346;SDS011;36852;45.466;11.066;2024-02-26T21:58:59;0.10;;;0.10;;
23346;SDS011;36852;45.466;11.066;2024-02-26T22:01:41;0.20;;;0.10;;
23346;SDS011;36852;45.466;11.066;2024-02-26T22:04:32;0.30;;;0.10;;
23346;SDS011;36852;45.466;11.066;2024-02-26T22:07:35;0.15;;;0.10;;
23346;SDS011;36852;45.466;11.066;2024-02-26T22:10:50;0.65;;;0.20;;
23346;SDS011;36852;45.466;11.066;2024-02-26T22:14:01;0.70;;;0.40;;
23346;SDS011;36852;45.466;11.066;2024-02-26T22:19:57;1.55;;;0.70;;
23346;SDS011;36852;45.466;11.066;2024-02-26T22:26:30;0.98;;;0.33;;
23346;SDS011;36852;45.466;11.066;2024-02-26T22:29:30;0.57;;;0.20;;
23346;SDS011;36852;45.466;11.066;2024-02-26T22:32:34;0.30;;;0.20;;
23346;SDS011;36852;45.466;11.066;2024-02-26T22:35:34;0.17;;;0.15;;
23346;SDS011;36852;45.466;11.066;2024-02-26T22:38:35;1.12;;;0.20;;
23346;SDS011;36852;45.466;11.066;2024-02-26T22:41:06;0.82;;;0.20;;
23346;SDS011;36852;45.466;11.066;2024-02-26T22:44:06;0.23;;;0.20;;
23346;SDS011;36852;45.466;11.066;2024-02-26T22:46:38;1.32;;;0.30;;
23346;SDS011;36852;45.466;11.066;2024-02-26T22:49:07;0.85;;;0.20;;
23346;SDS011;36852;45.466;11.066;2024-02-26T22:52:02;0.30;;;0.20;;
23346;SDS011;36852;45.466;11.066;2024-02-26T22:57:59;0.25;;;0.20;;
23346;SDS011;36852;45.466;11.066;2024-02-26T23:03:57;0.37;;;0.20;;
23346;SDS011;36852;45.466;11.066;2024-02-26T23:07:03;0.20;;;0.13;;
23346;SDS011;36852;45.466;11.066;2024-02-26T23:10:18;0.62;;;0.20;;
23346;SDS011;36852;45.466;11.066;2024-02-26T23:13:08;0.30;;;0.15;;
23346;SDS011;36852;45.466;11.066;2024-02-26T23:16:10;0.78;;;0.20;;
23346;SDS011;36852;45.466;11.066;2024-02-26T23:18:52;0.13;;;0.10;;
23346;SDS011;36852;45.466;11.066;2024-02-26T23:21:24;0.70;;;0.30;;
23346;SDS011;36852;45.466;11.066;2024-02-26T23:31:07;2.72;;;0.60;;
23346;SDS011;36852;45.466;11.066;2024-02-26T23:34:11;0.68;;;0.40;;
23346;SDS011;36852;45.466;11.066;2024-02-26T23:43:51;0.80;;;0.80;;
23346;SDS011;36852;45.466;11.066;2024-02-26T23:49:42;2.37;;;0.60;;
